sensor_id;sensor_type;location;lat;lon;timestamp;temperature;humidity
5192;DHT22;2615;44.524;11.284;2022-09-03T00:01:35;23.20;56.50
5192;DHT22;2615;44.524;11.284;2022-09-03T00:04:11;23.20;56.50
5192;DHT22;2615;44.524;11.284;2022-09-03T00:06:59;23.10;56.60
5192;DHT22;2615;44.524;11.284;2022-09-03T00:09:32;23.10;56.70
5192;DHT22;2615;44.524;11.284;2022-09-03T00:12:08;23.00;56.80
5192;DHT22;2615;44.524;11.284;2022-09-03T00:14:39;23.00;57.10
5192;DHT22;2615;44.524;11.284;2022-09-03T00:17:12;23.00;57.30
5192;DHT22;2615;44.524;11.284;2022-09-03T00:19:45;22.90;57.40
5192;DHT22;2615;44.524;11.284;2022-09-03T00:22:18;22.90;57.60
5192;DHT22;2615;44.524;11.284;2022-09-03T00:24:48;22.90;57.70
5192;DHT22;2615;44.524;11.284;2022-09-03T00:27:21;22.90;57.80
5192;DHT22;2615;44.524;11.284;2022-09-03T00:29:53;22.90;58.00
5192;DHT22;2615;44.524;11.284;2022-09-03T00:32:26;22.90;58.10
5192;DHT22;2615;44.524;11.284;2022-09-03T00:35:00;22.90;58.20
5192;DHT22;2615;44.524;11.284;2022-09-03T00:37:29;22.90;58.30
5192;DHT22;2615;44.524;11.284;2022-09-03T00:40:04;22.90;58.40
5192;DHT22;2615;44.524;11.284;2022-09-03T00:42:46;22.90;58.40
5192;DHT22;2615;44.524;11.284;2022-09-03T00:45:27;22.90;58.50
5192;DHT22;2615;44.524;11.284;2022-09-03T00:48:07;22.90;58.60
5192;DHT22;2615;44.524;11.284;2022-09-03T00:50:52;22.90;58.70
5192;DHT22;2615;44.524;11.284;2022-09-03T00:53:32;22.90;58.80
5192;DHT22;2615;44.524;11.284;2022-09-03T00:56:07;22.80;58.80
5192;DHT22;2615;44.524;11.284;2022-09-03T00:58:46;22.80;58.80
5192;DHT22;2615;44.524;11.284;2022-09-03T01:01:28;22.80;58.90
5192;DHT22;2615;44.524;11.284;2022-09-03T01:04:07;22.80;58.90
5192;DHT22;2615;44.524;11.284;2022-09-03T01:06:42;22.80;58.90
5192;DHT22;2615;44.524;11.284;2022-09-03T01:09:25;22.80;58.90
5192;DHT22;2615;44.524;11.284;2022-09-03T01:12:01;22.90;59.00
5192;DHT22;2615;44.524;11.284;2022-09-03T01:14:47;22.90;58.90
5192;DHT22;2615;44.524;11.284;2022-09-03T01:17:27;22.90;58.90
5192;DHT22;2615;44.524;11.284;2022-09-03T01:23:18;22.90;58.90
5192;DHT22;2615;44.524;11.284;2022-09-03T01:25:53;22.90;58.90
5192;DHT22;2615;44.524;11.284;2022-09-03T01:28:38;22.90;58.90
5192;DHT22;2615;44.524;11.284;2022-09-03T01:31:20;22.90;59.00
5192;DHT22;2615;44.524;11.284;2022-09-03T01:33:59;22.80;59.00
5192;DHT22;2615;44.524;11.284;2022-09-03T01:36:34;22.70;59.10
5192;DHT22;2615;44.524;11.284;2022-09-03T01:39:07;22.70;59.30
5192;DHT22;2615;44.524;11.284;2022-09-03T01:41:47;22.70;59.40
5192;DHT22;2615;44.524;11.284;2022-09-03T01:44:48;22.70;59.40
5192;DHT22;2615;44.524;11.284;2022-09-03T01:47:26;22.60;59.30
5192;DHT22;2615;44.524;11.284;2022-09-03T01:50:03;22.60;59.60
5192;DHT22;2615;44.524;11.284;2022-09-03T01:52:41;22.60;59.60
5192;DHT22;2615;44.524;11.284;2022-09-03T01:55:22;22.60;59.60
5192;DHT22;2615;44.524;11.284;2022-09-03T01:57:55;22.60;59.60
5192;DHT22;2615;44.524;11.284;2022-09-03T02:00:27;22.60;59.60
5192;DHT22;2615;44.524;11.284;2022-09-03T02:03:01;22.60;59.70
5192;DHT22;2615;44.524;11.284;2022-09-03T02:05:31;22.60;59.70
5192;DHT22;2615;44.524;11.284;2022-09-03T02:08:03;22.60;59.80
5192;DHT22;2615;44.524;11.284;2022-09-03T02:10:38;22.60;59.80
5192;DHT22;2615;44.524;11.284;2022-09-03T02:13:10;22.60;59.80
5192;DHT22;2615;44.524;11.284;2022-09-03T02:15:44;22.70;59.80
5192;DHT22;2615;44.524;11.284;2022-09-03T02:18:16;22.70;59.70
5192;DHT22;2615;44.524;11.284;2022-09-03T02:20:45;22.70;59.70
5192;DHT22;2615;44.524;11.284;2022-09-03T02:23:15;22.70;59.70
5192;DHT22;2615;44.524;11.284;2022-09-03T02:25:54;22.60;59.70
5192;DHT22;2615;44.524;11.284;2022-09-03T02:28:22;22.60;59.80
5192;DHT22;2615;44.524;11.284;2022-09-03T02:30:53;22.60;59.90
5192;DHT22;2615;44.524;11.284;2022-09-03T02:33:23;22.60;59.80
5192;DHT22;2615;44.524;11.284;2022-09-03T02:35:51;22.60;59.90
5192;DHT22;2615;44.524;11.284;2022-09-03T02:38:21;22.60;60.00
5192;DHT22;2615;44.524;11.284;2022-09-03T02:40:52;22.60;60.10
5192;DHT22;2615;44.524;11.284;2022-09-03T02:43:23;22.70;60.30
5192;DHT22;2615;44.524;11.284;2022-09-03T02:45:59;22.70;60.10
5192;DHT22;2615;44.524;11.284;2022-09-03T02:48:28;22.80;60.00
5192;DHT22;2615;44.524;11.284;2022-09-03T02:50:56;22.80;59.90
5192;DHT22;2615;44.524;11.284;2022-09-03T02:53:24;22.80;59.80
5192;DHT22;2615;44.524;11.284;2022-09-03T02:55:57;22.70;59.80
5192;DHT22;2615;44.524;11.284;2022-09-03T02:58:27;22.60;59.70
5192;DHT22;2615;44.524;11.284;2022-09-03T03:00:58;22.50;59.70
5192;DHT22;2615;44.524;11.284;2022-09-03T03:03:27;22.50;59.80
5192;DHT22;2615;44.524;11.284;2022-09-03T03:05:56;22.40;59.90
5192;DHT22;2615;44.524;11.284;2022-09-03T03:08:27;22.40;60.00
5192;DHT22;2615;44.524;11.284;2022-09-03T03:10:57;22.30;59.90
5192;DHT22;2615;44.524;11.284;2022-09-03T03:13:28;22.20;59.80
5192;DHT22;2615;44.524;11.284;2022-09-03T03:15:58;22.20;59.90
5192;DHT22;2615;44.524;11.284;2022-09-03T03:18:28;22.10;60.00
5192;DHT22;2615;44.524;11.284;2022-09-03T03:20:56;22.00;60.00
5192;DHT22;2615;44.524;11.284;2022-09-03T03:23:24;21.90;60.10
5192;DHT22;2615;44.524;11.284;2022-09-03T03:25:52;21.80;60.20
5192;DHT22;2615;44.524;11.284;2022-09-03T03:28:20;21.70;60.30
5192;DHT22;2615;44.524;11.284;2022-09-03T03:30:48;21.70;60.50
5192;DHT22;2615;44.524;11.284;2022-09-03T03:33:20;21.70;60.70
5192;DHT22;2615;44.524;11.284;2022-09-03T03:35:49;21.70;60.70
5192;DHT22;2615;44.524;11.284;2022-09-03T03:38:17;21.70;60.70
5192;DHT22;2615;44.524;11.284;2022-09-03T03:40:45;21.70;60.70
5192;DHT22;2615;44.524;11.284;2022-09-03T03:43:13;21.70;60.70
5192;DHT22;2615;44.524;11.284;2022-09-03T03:45:42;21.70;60.80
5192;DHT22;2615;44.524;11.284;2022-09-03T03:48:10;21.70;60.90
5192;DHT22;2615;44.524;11.284;2022-09-03T03:50:39;21.80;60.90
5192;DHT22;2615;44.524;11.284;2022-09-03T03:53:07;21.80;60.80
5192;DHT22;2615;44.524;11.284;2022-09-03T03:55:36;21.80;60.80
5192;DHT22;2615;44.524;11.284;2022-09-03T03:58:04;21.80;60.80
5192;DHT22;2615;44.524;11.284;2022-09-03T04:00:33;21.80;60.80
5192;DHT22;2615;44.524;11.284;2022-09-03T04:03:03;21.80;61.10
5192;DHT22;2615;44.524;11.284;2022-09-03T04:05:31;21.70;61.00
5192;DHT22;2615;44.524;11.284;2022-09-03T04:08:02;21.70;61.10
5192;DHT22;2615;44.524;11.284;2022-09-03T04:10:30;21.70;61.30
5192;DHT22;2615;44.524;11.284;2022-09-03T04:12:58;21.60;61.20
5192;DHT22;2615;44.524;11.284;2022-09-03T04:15:26;21.60;61.40
5192;DHT22;2615;44.524;11.284;2022-09-03T04:17:55;21.60;61.60
5192;DHT22;2615;44.524;11.284;2022-09-03T04:20:23;21.60;61.70
5192;DHT22;2615;44.524;11.284;2022-09-03T04:22:51;21.60;61.90
5192;DHT22;2615;44.524;11.284;2022-09-03T04:25:20;21.60;61.90
5192;DHT22;2615;44.524;11.284;2022-09-03T04:27:50;21.60;61.90
5192;DHT22;2615;44.524;11.284;2022-09-03T04:30:19;21.60;61.90
5192;DHT22;2615;44.524;11.284;2022-09-03T04:32:49;21.60;61.90
5192;DHT22;2615;44.524;11.284;2022-09-03T04:35:20;21.60;62.00
5192;DHT22;2615;44.524;11.284;2022-09-03T04:37:48;21.50;62.00
5192;DHT22;2615;44.524;11.284;2022-09-03T04:40:17;21.50;62.10
5192;DHT22;2615;44.524;11.284;2022-09-03T04:42:46;21.50;62.30
5192;DHT22;2615;44.524;11.284;2022-09-03T04:45:14;21.50;62.40
5192;DHT22;2615;44.524;11.284;2022-09-03T04:47:55;21.50;62.30
5192;DHT22;2615;44.524;11.284;2022-09-03T04:50:23;21.50;62.50
5192;DHT22;2615;44.524;11.284;2022-09-03T04:52:53;21.50;62.40
5192;DHT22;2615;44.524;11.284;2022-09-03T04:57:54;21.40;61.90
5192;DHT22;2615;44.524;11.284;2022-09-03T05:00:22;21.40;62.70
5192;DHT22;2615;44.524;11.284;2022-09-03T05:02:51;21.30;62.80
5192;DHT22;2615;44.524;11.284;2022-09-03T05:05:19;21.40;63.00
5192;DHT22;2615;44.524;11.284;2022-09-03T05:07:47;21.40;63.00
5192;DHT22;2615;44.524;11.284;2022-09-03T05:10:15;21.40;63.00
5192;DHT22;2615;44.524;11.284;2022-09-03T05:12:46;21.40;63.10
5192;DHT22;2615;44.524;11.284;2022-09-03T05:15:17;21.40;63.30
5192;DHT22;2615;44.524;11.284;2022-09-03T05:17:45;21.40;63.50
5192;DHT22;2615;44.524;11.284;2022-09-03T05:20:13;21.40;63.60
5192;DHT22;2615;44.524;11.284;2022-09-03T05:22:41;21.50;63.80
5192;DHT22;2615;44.524;11.284;2022-09-03T05:25:09;21.50;63.90
5192;DHT22;2615;44.524;11.284;2022-09-03T05:27:37;21.50;63.80
5192;DHT22;2615;44.524;11.284;2022-09-03T05:30:06;21.60;63.80
5192;DHT22;2615;44.524;11.284;2022-09-03T05:32:36;21.60;63.90
5192;DHT22;2615;44.524;11.284;2022-09-03T05:35:06;21.60;63.90
5192;DHT22;2615;44.524;11.284;2022-09-03T05:37:34;21.70;63.90
5192;DHT22;2615;44.524;11.284;2022-09-03T05:40:03;21.80;64.00
5192;DHT22;2615;44.524;11.284;2022-09-03T05:42:32;21.80;63.90
5192;DHT22;2615;44.524;11.284;2022-09-03T05:45:06;21.80;63.70
5192;DHT22;2615;44.524;11.284;2022-09-03T05:47:38;21.90;63.80
5192;DHT22;2615;44.524;11.284;2022-09-03T05:50:07;21.80;63.70
5192;DHT22;2615;44.524;11.284;2022-09-03T05:52:36;21.80;63.70
5192;DHT22;2615;44.524;11.284;2022-09-03T05:55:05;21.80;64.00
5192;DHT22;2615;44.524;11.284;2022-09-03T05:57:38;21.90;64.00
5192;DHT22;2615;44.524;11.284;2022-09-03T06:00:08;22.00;63.70
5192;DHT22;2615;44.524;11.284;2022-09-03T06:02:38;22.10;63.70
5192;DHT22;2615;44.524;11.284;2022-09-03T06:05:07;22.20;63.60
5192;DHT22;2615;44.524;11.284;2022-09-03T06:07:35;22.30;63.40
5192;DHT22;2615;44.524;11.284;2022-09-03T06:10:04;22.40;63.20
5192;DHT22;2615;44.524;11.284;2022-09-03T06:12:33;22.50;63.00
5192;DHT22;2615;44.524;11.284;2022-09-03T06:15:01;22.60;62.90
5192;DHT22;2615;44.524;11.284;2022-09-03T06:17:31;22.70;62.80
5192;DHT22;2615;44.524;11.284;2022-09-03T06:20:01;22.70;62.60
5192;DHT22;2615;44.524;11.284;2022-09-03T06:22:29;22.80;62.50
5192;DHT22;2615;44.524;11.284;2022-09-03T06:24:57;22.90;62.50
5192;DHT22;2615;44.524;11.284;2022-09-03T06:27:25;22.90;62.40
5192;DHT22;2615;44.524;11.284;2022-09-03T06:29:55;22.90;62.20
5192;DHT22;2615;44.524;11.284;2022-09-03T06:32:24;23.00;62.10
5192;DHT22;2615;44.524;11.284;2022-09-03T06:34:53;23.00;62.00
5192;DHT22;2615;44.524;11.284;2022-09-03T06:37:22;23.00;62.00
5192;DHT22;2615;44.524;11.284;2022-09-03T06:39:50;23.00;62.10
5192;DHT22;2615;44.524;11.284;2022-09-03T06:42:19;23.00;62.00
5192;DHT22;2615;44.524;11.284;2022-09-03T06:44:50;23.00;62.00
5192;DHT22;2615;44.524;11.284;2022-09-03T06:47:18;23.00;61.80
5192;DHT22;2615;44.524;11.284;2022-09-03T06:49:46;23.00;61.70
5192;DHT22;2615;44.524;11.284;2022-09-03T06:52:14;23.00;61.70
5192;DHT22;2615;44.524;11.284;2022-09-03T06:54:43;23.00;61.70
5192;DHT22;2615;44.524;11.284;2022-09-03T06:57:11;23.00;61.70
5192;DHT22;2615;44.524;11.284;2022-09-03T06:59:40;23.00;61.60
5192;DHT22;2615;44.524;11.284;2022-09-03T07:02:09;23.00;61.40
5192;DHT22;2615;44.524;11.284;2022-09-03T07:04:37;23.10;61.60
5192;DHT22;2615;44.524;11.284;2022-09-03T07:07:06;23.10;61.30
5192;DHT22;2615;44.524;11.284;2022-09-03T07:09:39;23.10;61.50
5192;DHT22;2615;44.524;11.284;2022-09-03T07:12:14;23.10;62.10
5192;DHT22;2615;44.524;11.284;2022-09-03T07:14:46;23.20;61.50
5192;DHT22;2615;44.524;11.284;2022-09-03T07:17:16;23.30;61.50
5192;DHT22;2615;44.524;11.284;2022-09-03T07:19:45;23.40;61.40
5192;DHT22;2615;44.524;11.284;2022-09-03T07:22:13;23.50;61.30
5192;DHT22;2615;44.524;11.284;2022-09-03T07:24:41;23.50;61.10
5192;DHT22;2615;44.524;11.284;2022-09-03T07:27:13;23.50;61.00
5192;DHT22;2615;44.524;11.284;2022-09-03T07:29:42;23.50;61.00
5192;DHT22;2615;44.524;11.284;2022-09-03T07:32:10;23.60;61.00
5192;DHT22;2615;44.524;11.284;2022-09-03T07:34:38;23.70;61.00
5192;DHT22;2615;44.524;11.284;2022-09-03T07:37:06;23.80;60.70
5192;DHT22;2615;44.524;11.284;2022-09-03T07:39:35;23.90;60.50
5192;DHT22;2615;44.524;11.284;2022-09-03T07:42:03;23.80;60.20
5192;DHT22;2615;44.524;11.284;2022-09-03T07:44:36;23.80;60.50
5192;DHT22;2615;44.524;11.284;2022-09-03T07:47:04;23.70;60.40
5192;DHT22;2615;44.524;11.284;2022-09-03T07:49:32;23.70;60.50
5192;DHT22;2615;44.524;11.284;2022-09-03T07:52:01;23.70;60.50
5192;DHT22;2615;44.524;11.284;2022-09-03T07:54:29;23.70;60.20
5192;DHT22;2615;44.524;11.284;2022-09-03T07:56:58;23.70;60.20
5192;DHT22;2615;44.524;11.284;2022-09-03T07:59:26;23.80;60.20
5192;DHT22;2615;44.524;11.284;2022-09-03T08:01:55;23.80;60.10
5192;DHT22;2615;44.524;11.284;2022-09-03T08:04:24;23.90;60.10
5192;DHT22;2615;44.524;11.284;2022-09-03T08:06:52;24.00;60.00
5192;DHT22;2615;44.524;11.284;2022-09-03T08:09:22;24.10;59.80
5192;DHT22;2615;44.524;11.284;2022-09-03T08:11:50;24.30;59.70
5192;DHT22;2615;44.524;11.284;2022-09-03T08:14:19;24.30;59.50
5192;DHT22;2615;44.524;11.284;2022-09-03T08:16:47;24.40;59.40
5192;DHT22;2615;44.524;11.284;2022-09-03T08:19:17;24.40;59.20
5192;DHT22;2615;44.524;11.284;2022-09-03T08:21:46;24.40;59.20
5192;DHT22;2615;44.524;11.284;2022-09-03T08:24:15;24.50;59.20
5192;DHT22;2615;44.524;11.284;2022-09-03T08:26:43;24.50;59.10
5192;DHT22;2615;44.524;11.284;2022-09-03T08:29:18;24.50;58.90
5192;DHT22;2615;44.524;11.284;2022-09-03T08:31:47;24.60;58.90
5192;DHT22;2615;44.524;11.284;2022-09-03T08:34:17;24.70;58.80
5192;DHT22;2615;44.524;11.284;2022-09-03T08:36:46;24.80;58.70
5192;DHT22;2615;44.524;11.284;2022-09-03T08:39:14;24.80;58.50
5192;DHT22;2615;44.524;11.284;2022-09-03T08:41:54;24.90;58.40
5192;DHT22;2615;44.524;11.284;2022-09-03T08:44:29;24.90;58.30
5192;DHT22;2615;44.524;11.284;2022-09-03T08:47:01;25.00;58.30
5192;DHT22;2615;44.524;11.284;2022-09-03T08:49:41;25.00;58.20
5192;DHT22;2615;44.524;11.284;2022-09-03T08:52:20;25.10;58.10
5192;DHT22;2615;44.524;11.284;2022-09-03T08:54:54;25.10;58.00
5192;DHT22;2615;44.524;11.284;2022-09-03T08:57:35;25.20;58.00
5192;DHT22;2615;44.524;11.284;2022-09-03T09:00:08;25.20;57.90
5192;DHT22;2615;44.524;11.284;2022-09-03T09:02:45;25.30;57.80
5192;DHT22;2615;44.524;11.284;2022-09-03T09:05:22;25.30;57.70
5192;DHT22;2615;44.524;11.284;2022-09-03T09:07:57;25.40;57.60
5192;DHT22;2615;44.524;11.284;2022-09-03T09:10:35;25.40;57.60
5192;DHT22;2615;44.524;11.284;2022-09-03T09:13:15;25.40;57.50
5192;DHT22;2615;44.524;11.284;2022-09-03T09:15:52;25.40;57.50
5192;DHT22;2615;44.524;11.284;2022-09-03T09:18:31;25.50;57.50
5192;DHT22;2615;44.524;11.284;2022-09-03T09:21:11;25.60;57.40
5192;DHT22;2615;44.524;11.284;2022-09-03T09:23:48;25.60;57.20
5192;DHT22;2615;44.524;11.284;2022-09-03T09:26:19;25.70;57.10
5192;DHT22;2615;44.524;11.284;2022-09-03T09:28:52;25.80;57.00
5192;DHT22;2615;44.524;11.284;2022-09-03T09:31:23;25.80;56.80
5192;DHT22;2615;44.524;11.284;2022-09-03T09:33:51;25.90;56.80
5192;DHT22;2615;44.524;11.284;2022-09-03T09:36:21;25.90;56.70
5192;DHT22;2615;44.524;11.284;2022-09-03T09:38:49;25.90;56.60
5192;DHT22;2615;44.524;11.284;2022-09-03T09:41:20;26.00;56.70
5192;DHT22;2615;44.524;11.284;2022-09-03T09:43:59;26.00;56.50
5192;DHT22;2615;44.524;11.284;2022-09-03T09:46:34;26.00;56.60
5192;DHT22;2615;44.524;11.284;2022-09-03T09:49:17;26.10;56.60
5192;DHT22;2615;44.524;11.284;2022-09-03T09:52:01;26.10;56.40
5192;DHT22;2615;44.524;11.284;2022-09-03T09:54:30;26.10;56.40
5192;DHT22;2615;44.524;11.284;2022-09-03T09:56:59;26.10;56.40
5192;DHT22;2615;44.524;11.284;2022-09-03T09:59:29;26.00;56.30
5192;DHT22;2615;44.524;11.284;2022-09-03T10:02:08;26.00;56.30
5192;DHT22;2615;44.524;11.284;2022-09-03T10:04:48;26.00;56.30
5192;DHT22;2615;44.524;11.284;2022-09-03T10:07:23;26.00;56.30
5192;DHT22;2615;44.524;11.284;2022-09-03T10:10:03;25.90;56.40
5192;DHT22;2615;44.524;11.284;2022-09-03T10:12:36;25.90;56.40
5192;DHT22;2615;44.524;11.284;2022-09-03T10:15:16;25.90;56.50
5192;DHT22;2615;44.524;11.284;2022-09-03T10:17:54;25.80;56.40
5192;DHT22;2615;44.524;11.284;2022-09-03T10:20:33;25.80;56.40
5192;DHT22;2615;44.524;11.284;2022-09-03T10:23:14;25.80;56.40
5192;DHT22;2615;44.524;11.284;2022-09-03T10:25:54;25.80;56.40
5192;DHT22;2615;44.524;11.284;2022-09-03T10:28:28;25.80;56.40
5192;DHT22;2615;44.524;11.284;2022-09-03T10:31:24;25.80;56.50
5192;DHT22;2615;44.524;11.284;2022-09-03T10:34:00;25.70;56.70
5192;DHT22;2615;44.524;11.284;2022-09-03T10:36:35;25.70;56.70
5192;DHT22;2615;44.524;11.284;2022-09-03T10:39:14;25.70;56.70
5192;DHT22;2615;44.524;11.284;2022-09-03T10:41:53;25.70;56.70
5192;DHT22;2615;44.524;11.284;2022-09-03T10:44:43;25.70;56.70
5192;DHT22;2615;44.524;11.284;2022-09-03T10:47:34;25.70;57.70
5192;DHT22;2615;44.524;11.284;2022-09-03T10:50:12;25.70;57.20
5192;DHT22;2615;44.524;11.284;2022-09-03T10:53:03;25.70;57.50
5192;DHT22;2615;44.524;11.284;2022-09-03T10:55:43;25.70;57.60
5192;DHT22;2615;44.524;11.284;2022-09-03T10:58:33;25.60;57.60
5192;DHT22;2615;44.524;11.284;2022-09-03T11:01:20;25.70;57.80
5192;DHT22;2615;44.524;11.284;2022-09-03T11:04:04;25.70;57.80
5192;DHT22;2615;44.524;11.284;2022-09-03T11:06:42;25.70;57.90
5192;DHT22;2615;44.524;11.284;2022-09-03T11:09:16;25.70;57.90
5192;DHT22;2615;44.524;11.284;2022-09-03T11:11:51;25.70;57.90
5192;DHT22;2615;44.524;11.284;2022-09-03T11:14:28;25.70;57.90
5192;DHT22;2615;44.524;11.284;2022-09-03T11:17:04;25.80;58.00
5192;DHT22;2615;44.524;11.284;2022-09-03T11:19:36;25.80;57.90
5192;DHT22;2615;44.524;11.284;2022-09-03T11:22:09;25.80;57.80
5192;DHT22;2615;44.524;11.284;2022-09-03T11:24:43;25.80;57.70
5192;DHT22;2615;44.524;11.284;2022-09-03T11:27:23;25.80;57.70
5192;DHT22;2615;44.524;11.284;2022-09-03T11:29:58;25.80;57.60
5192;DHT22;2615;44.524;11.284;2022-09-03T11:32:40;25.90;57.50
5192;DHT22;2615;44.524;11.284;2022-09-03T11:35:14;25.90;57.50
5192;DHT22;2615;44.524;11.284;2022-09-03T11:37:52;25.90;57.40
5192;DHT22;2615;44.524;11.284;2022-09-03T11:40:28;25.90;57.40
5192;DHT22;2615;44.524;11.284;2022-09-03T11:43:10;25.90;57.40
5192;DHT22;2615;44.524;11.284;2022-09-03T11:45:40;25.90;57.30
5192;DHT22;2615;44.524;11.284;2022-09-03T11:48:27;26.00;57.30
5192;DHT22;2615;44.524;11.284;2022-09-03T11:50:58;26.10;57.20
5192;DHT22;2615;44.524;11.284;2022-09-03T11:53:33;26.20;57.20
5192;DHT22;2615;44.524;11.284;2022-09-03T11:56:16;26.30;57.70
5192;DHT22;2615;44.524;11.284;2022-09-03T11:58:56;26.40;57.00
5192;DHT22;2615;44.524;11.284;2022-09-03T12:01:26;26.60;56.90
5192;DHT22;2615;44.524;11.284;2022-09-03T12:03:58;27.00;56.60
5192;DHT22;2615;44.524;11.284;2022-09-03T12:07:05;27.20;56.20
5192;DHT22;2615;44.524;11.284;2022-09-03T12:10:02;27.30;55.90
5192;DHT22;2615;44.524;11.284;2022-09-03T12:12:48;27.50;56.00
5192;DHT22;2615;44.524;11.284;2022-09-03T12:15:34;27.60;55.80
5192;DHT22;2615;44.524;11.284;2022-09-03T12:18:08;27.50;55.70
5192;DHT22;2615;44.524;11.284;2022-09-03T12:20:47;27.50;55.70
5192;DHT22;2615;44.524;11.284;2022-09-03T12:23:26;27.50;55.70
5192;DHT22;2615;44.524;11.284;2022-09-03T12:25:57;27.40;55.80
5192;DHT22;2615;44.524;11.284;2022-09-03T12:28:27;27.40;55.70
5192;DHT22;2615;44.524;11.284;2022-09-03T12:31:06;27.50;55.70
5192;DHT22;2615;44.524;11.284;2022-09-03T12:33:49;27.60;55.50
5192;DHT22;2615;44.524;11.284;2022-09-03T12:36:17;27.60;55.50
5192;DHT22;2615;44.524;11.284;2022-09-03T12:38:45;27.60;55.30
5192;DHT22;2615;44.524;11.284;2022-09-03T12:41:34;27.60;55.30
5192;DHT22;2615;44.524;11.284;2022-09-03T12:44:03;27.60;55.30
5192;DHT22;2615;44.524;11.284;2022-09-03T12:46:33;27.50;55.20
5192;DHT22;2615;44.524;11.284;2022-09-03T12:49:03;27.60;55.30
5192;DHT22;2615;44.524;11.284;2022-09-03T12:51:59;27.70;55.20
5192;DHT22;2615;44.524;11.284;2022-09-03T12:54:33;27.90;55.10
5192;DHT22;2615;44.524;11.284;2022-09-03T12:57:02;28.00;54.90
5192;DHT22;2615;44.524;11.284;2022-09-03T12:59:34;28.00;54.70
5192;DHT22;2615;44.524;11.284;2022-09-03T13:02:12;28.00;54.60
5192;DHT22;2615;44.524;11.284;2022-09-03T13:04:43;28.00;54.60
5192;DHT22;2615;44.524;11.284;2022-09-03T13:07:21;28.00;54.60
5192;DHT22;2615;44.524;11.284;2022-09-03T13:09:50;28.00;54.60
5192;DHT22;2615;44.524;11.284;2022-09-03T13:12:21;28.10;54.60
5192;DHT22;2615;44.524;11.284;2022-09-03T13:14:52;28.10;54.50
5192;DHT22;2615;44.524;11.284;2022-09-03T13:17:29;28.10;54.40
5192;DHT22;2615;44.524;11.284;2022-09-03T13:20:19;28.10;54.40
5192;DHT22;2615;44.524;11.284;2022-09-03T13:23:01;28.10;54.30
5192;DHT22;2615;44.524;11.284;2022-09-03T13:25:37;28.10;54.30
5192;DHT22;2615;44.524;11.284;2022-09-03T13:28:24;28.10;54.30
5192;DHT22;2615;44.524;11.284;2022-09-03T13:31:00;28.00;54.30
5192;DHT22;2615;44.524;11.284;2022-09-03T13:33:36;27.90;54.40
5192;DHT22;2615;44.524;11.284;2022-09-03T13:36:09;27.90;54.30
5192;DHT22;2615;44.524;11.284;2022-09-03T13:38:49;27.80;54.40
5192;DHT22;2615;44.524;11.284;2022-09-03T13:41:29;27.70;54.40
5192;DHT22;2615;44.524;11.284;2022-09-03T13:44:06;27.70;54.50
5192;DHT22;2615;44.524;11.284;2022-09-03T13:46:43;27.70;54.60
5192;DHT22;2615;44.524;11.284;2022-09-03T13:49:26;27.60;54.60
5192;DHT22;2615;44.524;11.284;2022-09-03T13:52:20;27.50;54.60
5192;DHT22;2615;44.524;11.284;2022-09-03T13:54:54;27.50;54.70
5192;DHT22;2615;44.524;11.284;2022-09-03T13:57:29;27.40;54.80
5192;DHT22;2615;44.524;11.284;2022-09-03T14:00:03;27.40;54.80
5192;DHT22;2615;44.524;11.284;2022-09-03T14:02:44;27.40;54.80
5192;DHT22;2615;44.524;11.284;2022-09-03T14:05:22;27.30;54.80
5192;DHT22;2615;44.524;11.284;2022-09-03T14:08:00;27.30;54.90
5192;DHT22;2615;44.524;11.284;2022-09-03T14:10:43;27.20;55.00
5192;DHT22;2615;44.524;11.284;2022-09-03T14:13:21;27.20;55.10
5192;DHT22;2615;44.524;11.284;2022-09-03T14:15:58;27.10;55.10
5192;DHT22;2615;44.524;11.284;2022-09-03T14:18:36;27.10;55.20
5192;DHT22;2615;44.524;11.284;2022-09-03T14:21:12;27.00;55.20
5192;DHT22;2615;44.524;11.284;2022-09-03T14:23:46;26.90;55.20
5192;DHT22;2615;44.524;11.284;2022-09-03T14:26:17;26.90;55.30
5192;DHT22;2615;44.524;11.284;2022-09-03T14:29:07;26.90;55.30
5192;DHT22;2615;44.524;11.284;2022-09-03T14:32:07;26.80;55.40
5192;DHT22;2615;44.524;11.284;2022-09-03T14:37:51;26.80;55.70
5192;DHT22;2615;44.524;11.284;2022-09-03T14:40:27;26.80;55.80
5192;DHT22;2615;44.524;11.284;2022-09-03T14:43:09;26.80;55.80
5192;DHT22;2615;44.524;11.284;2022-09-03T14:45:56;26.80;55.80
5192;DHT22;2615;44.524;11.284;2022-09-03T14:48:41;26.90;55.90
5192;DHT22;2615;44.524;11.284;2022-09-03T14:51:19;27.00;55.80
5192;DHT22;2615;44.524;11.284;2022-09-03T14:54:10;27.10;55.70
5192;DHT22;2615;44.524;11.284;2022-09-03T14:56:48;27.10;55.60
5192;DHT22;2615;44.524;11.284;2022-09-03T15:05:40;27.20;55.70
5192;DHT22;2615;44.524;11.284;2022-09-03T15:08:16;27.20;55.60
5192;DHT22;2615;44.524;11.284;2022-09-03T15:10:51;27.20;55.50
5192;DHT22;2615;44.524;11.284;2022-09-03T15:13:25;27.20;55.50
5192;DHT22;2615;44.524;11.284;2022-09-03T15:16:06;27.10;55.30
5192;DHT22;2615;44.524;11.284;2022-09-03T15:18:47;27.10;55.30
5192;DHT22;2615;44.524;11.284;2022-09-03T15:21:25;27.10;55.30
5192;DHT22;2615;44.524;11.284;2022-09-03T15:24:05;27.20;55.30
5192;DHT22;2615;44.524;11.284;2022-09-03T15:26:50;27.10;55.20
5192;DHT22;2615;44.524;11.284;2022-09-03T15:29:31;27.20;55.20
5192;DHT22;2615;44.524;11.284;2022-09-03T15:32:06;27.20;55.10
5192;DHT22;2615;44.524;11.284;2022-09-03T15:34:58;27.20;55.00
5192;DHT22;2615;44.524;11.284;2022-09-03T15:37:39;27.30;55.00
5192;DHT22;2615;44.524;11.284;2022-09-03T15:40:22;27.30;55.00
5192;DHT22;2615;44.524;11.284;2022-09-03T15:42:57;27.30;54.90
5192;DHT22;2615;44.524;11.284;2022-09-03T15:45:34;27.30;54.90
5192;DHT22;2615;44.524;11.284;2022-09-03T15:48:16;27.30;54.90
5192;DHT22;2615;44.524;11.284;2022-09-03T15:50:51;27.30;54.90
5192;DHT22;2615;44.524;11.284;2022-09-03T15:53:28;27.20;54.90
5192;DHT22;2615;44.524;11.284;2022-09-03T15:56:06;27.20;55.00
5192;DHT22;2615;44.524;11.284;2022-09-03T15:58:47;27.20;55.00
5192;DHT22;2615;44.524;11.284;2022-09-03T16:01:25;27.20;55.00
5192;DHT22;2615;44.524;11.284;2022-09-03T16:04:02;27.10;55.10
5192;DHT22;2615;44.524;11.284;2022-09-03T16:06:46;27.10;55.30
5192;DHT22;2615;44.524;11.284;2022-09-03T16:09:31;27.00;55.40
5192;DHT22;2615;44.524;11.284;2022-09-03T16:12:16;27.00;55.40
5192;DHT22;2615;44.524;11.284;2022-09-03T16:14:52;26.90;56.00
5192;DHT22;2615;44.524;11.284;2022-09-03T16:17:26;26.90;55.40
5192;DHT22;2615;44.524;11.284;2022-09-03T16:19:59;26.80;55.50
5192;DHT22;2615;44.524;11.284;2022-09-03T16:22:31;26.80;55.60
5192;DHT22;2615;44.524;11.284;2022-09-03T16:25:02;26.80;55.70
5192;DHT22;2615;44.524;11.284;2022-09-03T16:27:36;26.80;55.80
5192;DHT22;2615;44.524;11.284;2022-09-03T16:30:10;26.80;55.90
5192;DHT22;2615;44.524;11.284;2022-09-03T16:32:50;26.70;56.00
5192;DHT22;2615;44.524;11.284;2022-09-03T16:35:26;26.70;56.00
5192;DHT22;2615;44.524;11.284;2022-09-03T16:38:07;26.70;56.10
5192;DHT22;2615;44.524;11.284;2022-09-03T16:40:41;26.60;56.10
5192;DHT22;2615;44.524;11.284;2022-09-03T16:43:22;26.60;56.10
5192;DHT22;2615;44.524;11.284;2022-09-03T16:46:17;26.50;56.20